Sheppard Air Force Base-Wichita Falls Municipal Airport
KSPS : now visible

Airfield :











YOU CAN JOIN US ON...

 
LOGIN :

Register | Disclaimer

   EN    FR    IT 

 









Legend :    VFR   Marginal VFR   IFR   Intensive IFR   Very Intensive IFR
Visi :
Ceiling :
>= 8 km
>= 3000ft
5 to 8 km
1000 to 3000 ft
1500m to 5 km
500 to 1000 ft
800 to 1500m
200 to 500 ft
< 800m
< 200 ft
Symbols :   Thunderstorms  Fog  Heavy snow  Heavy precipitations  Wind > 20 kt






- Airport Elevation : 1019 ft
- IATA code : SPS


KSPS - Sheppard Air Force Base-Wichita Falls Municipal

CURRENT METAR :
  • 071452Z 05012KT 10SM BKN100 23/09 A3029 RMK AO2 SLP247 T02280089 51018 $

EXPIRED METARs :
  • 071352Z 04008KT 10SM OVC090 21/09 A3027 RMK AO2 SLP242 T02060089 $
  • 071252Z 35006KT 10SM BKN090 19/09 A3026 RMK AO2 SLP236 T01890094

TAF KSPS
Valid from the 07 at 12:00 until the 08 at 12:00 UTC


071120Z 0712/0812 03006KT P6SM OVC100
FM071500 04010KT P6SM OVC100
FM080600 03008KT P6SM OVC100
PROB30 0806/0812 -SHRA
KZFW FIR / North America



MET'MAP, your aeronautical weather chart ! - Copyright ORBIFLY December 2007 - Disclaimer

ORBIFLY MET'MAP TEAM :

Programming & Development : Alexandra Zaïnal
Original concept : Baudouin d'Aumeries
Technical & hardware support : Manuel Goepfert
Assistance : Marc-Olivier Méhu




SOURCES & CREDITS :

   NOAA       Earth
Advisory